Time;durP1;ratioP1;P1;durP2;ratioP2;P2;SDS_P1;SDS_P2;PMS_P1;PMS_P2;Temp;Humidity;BMP_temperature;BMP_pressure;BME280_temperature;BME280_humidity;BME280_pressure;Samples;Min_cycle;Max_cycle;Signal;HPM_P1;HPM_P2
2023/03/27 00:01:36;;;;;;;;;;;8.70;96.00;;;8.94;66.54;97628.13;4963237;28;114527;-75
2023/03/27 00:04:07;;;;;;;;;;;8.70;96.10;;;8.93;66.65;97623.75;4965402;28;115913;-74
2023/03/27 00:06:34;;;;;;;;;;;8.70;96.10;;;8.92;66.45;97635.88;4956938;28;124397;-75
2023/03/27 00:09:02;;;;;;;;;;;8.70;96.20;;;8.88;66.44;97634.94;4960947;28;124975;-74
2023/03/27 00:11:31;;;;;;;;;;;8.60;96.20;;;8.84;66.88;97635.63;4963307;28;114384;-75
2023/03/27 00:13:58;;;;;;;;;;;8.60;96.40;;;8.81;67.04;97641.78;4961664;28;113834;-74
2023/03/27 00:16:30;;;;;;;;;;;8.60;96.40;;;8.80;66.65;97642.91;4953684;28;123675;-75
2023/03/27 00:19:01;;;;;;;;;;;8.50;96.40;;;8.79;66.49;97649.56;4968640;28;123413;-74
2023/03/27 00:21:34;;;;;;;;;;;8.50;96.30;;;8.79;66.50;97660.56;4970832;28;113943;-75
2023/03/27 00:24:08;;;;;;;;;;;8.50;96.30;;;8.80;66.58;97661.38;4963325;28;113837;-74
2023/03/27 00:26:35;;;;;;;;;;;8.60;96.30;;;8.82;66.60;97665.44;4967459;28;124415;-75
2023/03/27 00:29:01;;;;;;;;;;;8.50;96.40;;;8.84;66.28;97676.13;4969621;28;124134;-78
2023/03/27 00:31:32;;;;;;;;;;;8.50;96.30;;;8.84;66.29;97670.63;4976355;28;114109;-76
2023/03/27 00:34:00;;;;;;;;;;;8.50;96.30;;;8.86;66.38;97684.84;4973820;28;114074;-75
2023/03/27 00:36:26;;;;;;;;;;;8.60;96.30;;;8.86;66.56;97679.34;4968511;28;124429;-74
2023/03/27 00:38:55;;;;;;;;;;;8.60;96.50;;;8.84;66.48;97685.19;4960362;28;124484;-74
2023/03/27 00:41:25;;;;;;;;;;;8.60;96.50;;;8.85;66.80;97699.75;4950950;28;115229;-75
2023/03/27 00:43:57;;;;;;;;;;;8.60;96.50;;;8.88;66.70;97703.81;4985743;28;114974;-75
2023/03/27 00:46:30;;;;;;;;;;;8.60;96.50;;;8.89;66.41;97711.72;4979502;28;123004;-74
2023/03/27 00:48:59;;;;;;;;;;;8.60;96.50;;;8.87;66.42;97719.53;4955682;28;123539;-74
2023/03/27 00:51:25;;;;;;;;;;;8.60;96.50;;;8.87;66.47;97716.78;4970128;28;115367;-75
2023/03/27 00:53:55;;;;;;;;;;;8.60;96.50;;;8.88;66.64;97718.38;4984347;28;113419;-74
2023/03/27 00:56:26;;;;;;;;;;;8.60;96.40;;;8.91;66.28;97727.94;4967706;28;123879;-74
2023/03/27 00:59:00;;;;;;;;;;;8.70;96.40;;;8.92;65.83;97721.28;4967063;28;123900;-74
2023/03/27 01:01:27;;;;;;;;;;;8.70;96.20;;;8.93;65.71;97720.16;4970445;28;114518;-74
2023/03/27 01:04:02;;;;;;;;;;;8.70;96.10;;;8.93;65.61;97737.50;4969612;28;114465;-75
2023/03/27 01:06:30;;;;;;;;;;;8.70;96.00;;;8.94;65.53;97738.28;4976786;28;124460;-74
2023/03/27 01:08:56;;;;;;;;;;;8.70;96.00;;;8.96;65.47;97747.84;4993821;28;124066;-74
2023/03/27 01:12:01;;;;;;;;;;;8.70;95.90;;;8.98;65.33;97747.53;4978743;28;114460;-74
2023/03/27 01:14:39;;;;;;;;;;;8.70;96.20;;;8.95;65.49;97757.25;4967708;28;112880;-75
2023/03/27 01:17:14;;;;;;;;;;;8.70;95.90;;;8.91;65.39;97761.00;4971541;28;123898;-75
2023/03/27 01:19:43;;;;;;;;;;;8.70;95.90;;;8.84;65.02;97767.00;4968777;28;123998;-75
2023/03/27 01:22:27;;;;;;;;;;;8.70;95.70;;;8.80;65.14;97766.84;4983994;28;113621;-74
2023/03/27 01:25:41;;;;;;;;;;;8.60;95.60;;;8.76;64.78;97774.16;4953020;28;113973;-74
2023/03/27 01:28:55;;;;;;;;;;;8.60;95.40;;;8.67;64.42;97778.84;4970706;28;123641;-74
2023/03/27 01:32:00;;;;;;;;;;;8.50;95.20;;;8.56;64.45;97788.56;4921050;28;124239;-74
2023/03/27 01:35:07;;;;;;;;;;;8.50;95.10;;;8.54;64.37;97791.66;4931580;28;115607;-74
2023/03/27 01:38:16;;;;;;;;;;;8.40;95.10;;;8.57;64.12;97801.19;4914966;28;114987;-76
2023/03/27 01:41:24;;;;;;;;;;;8.40;95.10;;;8.59;64.24;97802.47;4924079;28;123283;-75
2023/03/27 01:44:04;;;;;;;;;;;8.40;95.10;;;8.60;64.32;97809.63;4936669;28;125964;-76
2023/03/27 01:47:02;;;;;;;;;;;8.40;95.10;;;8.59;64.32;97810.75;4912098;28;115291;-75
2023/03/27 01:49:38;;;;;;;;;;;8.40;95.10;;;8.63;64.39;97821.94;4926033;28;114007;-77
2023/03/27 01:52:12;;;;;;;;;;;8.50;95.20;;;8.67;64.27;97828.41;4914246;28;124621;-76
2023/03/27 01:54:45;;;;;;;;;;;8.50;95.10;;;8.70;64.48;97832.44;4929954;28;123944;-74
2023/03/27 01:57:29;;;;;;;;;;;8.50;95.20;;;8.67;64.15;97841.38;4905927;28;113715;-74
2023/03/27 02:00:16;;;;;;;;;;;8.40;95.30;;;8.65;64.16;97863.75;4901498;28;114106;-74
2023/03/27 02:02:55;;;;;;;;;;;8.40;95.10;;;8.61;63.86;97865.50;4896148;28;124080;-75
2023/03/27 02:05:40;;;;;;;;;;;8.40;95.00;;;8.61;63.73;97868.25;4899984;28;124028;-74
2023/03/27 02:08:14;;;;;;;;;;;8.40;94.90;;;8.62;63.68;97875.38;4960194;28;114812;-75
2023/03/27 02:10:42;;;;;;;;;;;8.40;94.90;;;8.59;63.56;97887.03;4979424;28;112836;-74
2023/03/27 02:13:34;;;;;;;;;;;8.30;94.90;;;8.55;63.73;97892.38;4991702;28;124498;-75
2023/03/27 02:16:00;;;;;;;;;;;8.30;95.00;;;8.51;63.64;97896.09;4980538;28;124332;-74
2023/03/27 02:18:34;;;;;;;;;;;8.20;94.80;;;8.39;63.44;97903.03;4984358;28;112508;-74
2023/03/27 02:21:07;;;;;;;;;;;8.20;94.70;;;8.29;63.21;97933.56;4980422;28;113685;-75
2023/03/27 02:23:37;;;;;;;;;;;8.10;94.50;;;8.24;63.09;97927.41;4975635;28;124046;-74
2023/03/27 02:26:07;;;;;;;;;;;8.00;94.30;;;8.19;62.59;97936.59;4962221;28;124180;-75
2023/03/27 02:28:46;;;;;;;;;;;8.00;94.20;;;8.15;62.62;97946.63;4980581;28;115763;-75
2023/03/27 02:31:56;;;;;;;;;;;7.90;94.00;;;8.06;62.28;97946.59;4959083;28;114355;-75
2023/03/27 02:34:30;;;;;;;;;;;7.90;93.80;;;7.97;62.30;97954.78;4952425;28;124102;-74
2023/03/27 02:37:20;;;;;;;;;;;7.80;93.70;;;7.95;62.20;97962.56;4952701;28;123946;-74
2023/03/27 02:39:53;;;;;;;;;;;7.80;93.70;;;7.85;61.75;97982.09;4970715;28;114630;-74
2023/03/27 02:42:33;;;;;;;;;;;7.70;93.50;;;7.75;61.79;97987.84;4977496;28;114000;-74
2023/03/27 02:45:23;;;;;;;;;;;7.60;93.50;;;7.68;62.06;97984.72;4955966;28;124796;-75
2023/03/27 02:47:58;;;;;;;;;;;7.60;93.50;;;7.61;61.94;97998.09;4956905;28;123967;-74
2023/03/27 02:50:37;;;;;;;;;;;7.50;93.40;;;7.56;62.62;97999.03;4959526;28;114565;-75
2023/03/27 02:53:07;;;;;;;;;;;7.50;93.50;;;7.48;62.49;98019.84;4989135;28;113849;-74
2023/03/27 02:55:43;;;;;;;;;;;7.40;93.60;;;7.43;62.33;98011.69;4981314;28;124399;-75
2023/03/27 02:58:22;;;;;;;;;;;7.30;93.60;;;7.40;62.71;98034.31;4964252;28;123915;-74
2023/03/27 03:00:55;;;;;;;;;;;7.30;93.60;;;7.36;62.44;98038.81;4956444;28;113873;-74
2023/03/27 03:03:37;;;;;;;;;;;7.30;93.70;;;7.29;62.96;98038.44;4986688;28;113378;-74
2023/03/27 03:06:13;;;;;;;;;;;7.20;93.80;;;7.26;62.99;98041.78;4951857;28;124397;-74
2023/03/27 03:08:42;;;;;;;;;;;7.10;93.80;;;7.23;62.94;98045.16;4986459;28;123462;-75
2023/03/27 03:11:13;;;;;;;;;;;7.10;93.80;;;7.17;63.01;98047.19;4971021;28;113969;-74
2023/03/27 03:13:41;;;;;;;;;;;7.00;93.80;;;7.12;63.11;98072.03;4961487;28;113977;-74
2023/03/27 03:16:08;;;;;;;;;;;6.90;93.90;;;7.07;63.31;98069.41;4958935;28;124870;-74
2023/03/27 03:18:35;;;;;;;;;;;6.90;93.90;;;7.01;63.14;98071.44;4960326;28;124569;-74
2023/03/27 03:21:01;;;;;;;;;;;6.80;93.90;;;6.98;62.94;98076.72;4965317;28;115423;-74
2023/03/27 03:23:29;;;;;;;;;;;6.80;93.90;;;6.95;63.04;98091.88;4985215;28;114500;-74
2023/03/27 03:25:58;;;;;;;;;;;6.80;93.80;;;6.92;62.69;98097.19;4952545;28;125075;-74
2023/03/27 03:28:29;;;;;;;;;;;6.80;93.80;;;6.87;62.96;98100.84;4971949;28;123619;-74
2023/03/27 03:30:57;;;;;;;;;;;6.70;93.90;;;6.86;62.77;98100.03;4956361;28;113964;-74
2023/03/27 03:33:24;;;;;;;;;;;6.70;93.90;;;6.86;63.28;98105.53;4972259;28;112894;-74
2023/03/27 03:35:53;;;;;;;;;;;6.70;93.90;;;6.86;63.51;98113.75;4980218;28;124051;-74
2023/03/27 03:38:23;;;;;;;;;;;6.70;93.90;;;6.85;63.78;98123.13;4963977;28;123251;-77
2023/03/27 03:40:54;;;;;;;;;;;6.70;94.10;;;6.85;63.70;98122.28;4967060;28;114413;-74
2023/03/27 03:43:24;;;;;;;;;;;6.70;94.00;;;6.84;63.11;98126.16;4960164;28;113536;-74
2023/03/27 03:45:56;;;;;;;;;;;6.70;93.90;;;6.88;63.11;98132.69;4981823;28;123909;-74
2023/03/27 03:48:22;;;;;;;;;;;6.70;93.90;;;6.90;63.23;98138.66;4964487;28;123670;-74
2023/03/27 03:50:53;;;;;;;;;;;6.70;93.90;;;6.89;63.20;98144.47;4982931;28;113556;-74
2023/03/27 03:53:20;;;;;;;;;;;6.70;93.80;;;6.81;62.49;98160.53;4975650;28;113144;-74
2023/03/27 03:55:50;;;;;;;;;;;6.70;93.70;;;6.81;62.46;98171.50;4976157;28;124062;-74
2023/03/27 03:58:19;;;;;;;;;;;6.60;93.60;;;6.83;62.06;98179.47;4959237;28;124605;-74
2023/03/27 04:00:46;;;;;;;;;;;6.70;93.60;;;6.83;62.14;98196.75;4960740;28;114753;-74
2023/03/27 04:03:13;;;;;;;;;;;6.60;93.50;;;6.75;61.65;98199.38;4965059;28;113825;-74
2023/03/27 04:05:41;;;;;;;;;;;6.60;93.10;;;6.69;61.17;98206.06;4968118;28;124508;-74
2023/03/27 04:08:08;;;;;;;;;;;6.50;92.90;;;6.63;61.19;98219.88;4986119;28;123686;-74
2023/03/27 04:10:41;;;;;;;;;;;6.50;92.90;;;6.56;60.89;98210.41;4970293;28;115678;-74
2023/03/27 04:13:10;;;;;;;;;;;6.40;92.70;;;6.48;60.93;98225.63;4965793;28;114588;-74
2023/03/27 04:15:39;;;;;;;;;;;6.30;92.60;;;6.39;60.97;98232.91;4961165;28;123434;-74
2023/03/27 04:18:09;;;;;;;;;;;6.30;92.60;;;6.36;61.46;98250.78;4991989;28;123976;-73
2023/03/27 04:20:36;;;;;;;;;;;6.30;92.70;;;6.38;61.18;98255.97;4997003;28;114640;-74
2023/03/27 04:23:03;;;;;;;;;;;6.20;92.60;;;6.33;61.07;98262.34;4999993;28;113741;-77
2023/03/27 04:25:33;;;;;;;;;;;6.20;92.50;;;6.26;60.68;98269.31;4983325;28;124762;-74
2023/03/27 04:28:01;;;;;;;;;;;6.20;92.30;;;6.24;60.79;98272.38;4955620;28;123787;-74
2023/03/27 04:30:27;;;;;;;;;;;6.20;92.30;;;6.24;60.51;98282.53;4974000;28;113581;-74
2023/03/27 04:33:00;;;;;;;;;;;6.10;92.10;;;6.26;60.37;98289.34;4969033;28;112742;-74
2023/03/27 04:35:27;;;;;;;;;;;6.10;92.00;;;6.22;59.85;98298.47;4971470;28;123717;-74
2023/03/27 04:38:00;;;;;;;;;;;6.00;91.80;;;6.19;59.88;98302.63;4969789;28;123888;-74
2023/03/27 04:40:28;;;;;;;;;;;5.90;91.90;;;6.14;60.14;98306.25;4965554;28;114173;-75
2023/03/27 04:43:00;;;;;;;;;;;6.00;91.90;;;6.16;60.40;98311.44;4989286;28;112011;-75
2023/03/27 04:45:33;;;;;;;;;;;6.00;91.90;;;6.15;60.14;98310.63;4962967;28;124507;-75
2023/03/27 04:48:01;;;;;;;;;;;6.00;91.90;;;6.11;58.92;98328.78;4965515;28;124018;-75
2023/03/27 04:50:39;;;;;;;;;;;5.90;91.60;;;6.09;59.18;98333.72;4990661;28;114908;-76
2023/03/27 04:53:11;;;;;;;;;;;5.80;91.30;;;6.03;58.87;98351.38;4971755;28;114044;-76
2023/03/27 04:55:38;;;;;;;;;;;5.80;91.20;;;5.98;58.32;98340.47;4974930;28;123371;-75
2023/03/27 04:58:04;;;;;;;;;;;5.80;91.00;;;5.93;58.51;98354.19;4974366;28;123768;-76
2023/03/27 05:00:33;;;;;;;;;;;5.70;90.60;;;5.86;58.35;98357.31;4970060;28;114776;-76
2023/03/27 05:03:00;;;;;;;;;;;5.70;90.60;;;5.82;58.24;98360.91;4971994;28;115333;-75
2023/03/27 05:05:26;;;;;;;;;;;5.70;90.50;;;5.81;58.07;98378.50;4973135;28;124423;-75
2023/03/27 05:07:53;;;;;;;;;;;5.70;90.40;;;5.76;57.29;98385.66;4963953;28;123760;-76
2023/03/27 05:10:26;;;;;;;;;;;5.70;90.20;;;5.74;58.29;98387.84;4973290;28;114628;-75
2023/03/27 05:12:57;;;;;;;;;;;5.60;90.20;;;5.73;57.81;98410.09;4966018;28;112810;-74
2023/03/27 05:15:24;;;;;;;;;;;5.60;90.40;;;5.73;57.08;98402.69;4954436;28;124072;-75
2023/03/27 05:17:53;;;;;;;;;;;5.60;89.80;;;5.69;57.23;98415.31;4968945;28;123936;-75
2023/03/27 05:20:23;;;;;;;;;;;5.50;89.70;;;5.64;56.66;98426.34;4969973;28;113386;-75
2023/03/27 05:22:59;;;;;;;;;;;5.40;89.60;;;5.54;56.58;98431.94;4959709;28;114481;-74
2023/03/27 05:25:26;;;;;;;;;;;5.40;89.20;;;5.49;55.93;98451.16;4950325;28;124195;-75
2023/03/27 05:27:53;;;;;;;;;;;5.40;89.00;;;5.45;56.58;98442.66;4987568;28;123947;-75
2023/03/27 05:30:23;;;;;;;;;;;5.30;88.70;;;5.42;56.41;98447.91;4966525;28;114691;-75
2023/03/27 05:32:52;;;;;;;;;;;5.30;89.00;;;5.41;56.84;98463.53;4981087;28;113903;-75
2023/03/27 05:35:22;;;;;;;;;;;5.30;88.60;;;5.41;55.78;98460.00;4949553;28;123260;-74
2023/03/27 05:38:00;;;;;;;;;;;5.20;88.60;;;5.36;56.42;98471.00;4956501;28;123885;-75
2023/03/27 05:40:34;;;;;;;;;;;5.20;88.70;;;5.30;56.32;98487.47;4969103;28;113534;-74
2023/03/27 05:43:03;;;;;;;;;;;5.10;88.30;;;5.29;55.90;98480.38;4987654;28;113758;-74
2023/03/27 05:45:30;;;;;;;;;;;5.10;88.20;;;5.26;55.85;98482.84;4984617;28;124583;-74
2023/03/27 05:48:00;;;;;;;;;;;5.10;88.10;;;5.21;56.17;98480.97;4970261;28;122670;-74
2023/03/27 05:50:29;;;;;;;;;;;5.10;88.10;;;5.21;56.25;98482.88;4972144;28;114508;-74
2023/03/27 05:53:03;;;;;;;;;;;5.00;88.10;;;5.22;56.53;98488.06;4955392;28;114545;-75
2023/03/27 05:56:10;;;;;;;;;;;5.00;88.10;;;5.20;56.27;98484.78;4967342;28;125373;-74
2023/03/27 05:58:38;;;;;;;;;;;5.00;88.20;;;5.17;56.49;98501.81;4973337;28;123867;-76
2023/03/27 06:01:05;;;;;;;;;;;5.00;88.20;;;5.13;56.40;98499.91;4959349;28;114344;-76
2023/03/27 06:03:36;;;;;;;;;;;5.00;88.10;;;5.07;55.91;98501.88;4960591;28;114039;-75
2023/03/27 06:06:10;;;;;;;;;;;4.90;88.00;;;5.09;56.38;98513.34;4960606;28;125195;-76
2023/03/27 06:08:37;;;;;;;;;;;4.90;88.20;;;5.04;56.20;98522.41;4995208;28;124541;-78
2023/03/27 06:11:11;;;;;;;;;;;4.90;88.10;;;5.05;56.09;98521.34;4965414;28;116003;-78
2023/03/27 06:13:38;;;;;;;;;;;4.90;88.00;;;5.06;56.25;98533.09;4977616;28;113697;-76
2023/03/27 06:16:08;;;;;;;;;;;4.90;88.10;;;5.11;56.19;98527.59;4966920;28;123398;-76
2023/03/27 06:18:34;;;;;;;;;;;4.90;88.10;;;5.12;56.30;98542.91;4995158;28;123870;-76
2023/03/27 06:21:02;;;;;;;;;;;5.00;88.20;;;5.16;56.27;98546.72;4960825;28;114352;-76
2023/03/27 06:23:28;;;;;;;;;;;4.90;88.00;;;5.16;56.59;98570.53;5000711;28;114364;-76
2023/03/27 06:25:57;;;;;;;;;;;5.00;88.10;;;5.16;56.91;98563.16;4968135;28;124552;-75
2023/03/27 06:28:25;;;;;;;;;;;5.00;89.20;;;5.19;57.18;98570.00;4972699;28;124103;-75
2023/03/27 06:30:52;;;;;;;;;;;5.00;89.00;;;5.17;56.31;98580.41;5000505;28;114620;-75
2023/03/27 06:33:21;;;;;;;;;;;5.00;89.30;;;5.11;55.81;98590.56;4970914;28;112837;-75
2023/03/27 06:35:47;;;;;;;;;;;4.90;88.00;;;5.08;56.39;98602.09;4968697;28;124276;-75
2023/03/27 06:38:16;;;;;;;;;;;4.90;88.20;;;5.08;56.00;98608.38;4962338;28;123970;-76
2023/03/27 06:40:44;;;;;;;;;;;4.90;87.90;;;5.06;55.86;98610.56;4967191;28;115400;-76
2023/03/27 06:43:16;;;;;;;;;;;4.90;87.70;;;5.00;55.86;98610.91;4967488;28;115341;-75
2023/03/27 06:45:48;;;;;;;;;;;4.80;87.50;;;4.99;56.05;98631.13;4995914;28;123318;-75
2023/03/27 06:48:16;;;;;;;;;;;4.80;87.60;;;4.99;55.97;98631.94;4966603;28;123467;-75
2023/03/27 06:50:45;;;;;;;;;;;4.80;87.70;;;5.04;56.37;98628.38;4980584;28;113593;-75
2023/03/27 06:53:15;;;;;;;;;;;4.80;87.60;;;5.05;55.38;98638.22;4986368;28;112806;-75
2023/03/27 06:55:44;;;;;;;;;;;4.80;87.40;;;5.02;56.13;98638.78;4964673;28;123120;-75
2023/03/27 06:58:13;;;;;;;;;;;4.80;87.60;;;5.03;55.93;98654.13;4973538;28;124789;-75
2023/03/27 07:00:44;;;;;;;;;;;4.80;87.30;;;5.02;55.62;98666.16;4980869;28;114499;-76
2023/03/27 07:03:11;;;;;;;;;;;4.80;87.20;;;5.05;55.44;98666.44;4961735;28;113673;-76
2023/03/27 07:05:39;;;;;;;;;;;4.90;87.50;;;5.08;55.80;98673.28;4987989;28;123420;-76
2023/03/27 07:08:11;;;;;;;;;;;4.90;87.50;;;5.12;55.73;98671.63;4997843;28;124612;-75
2023/03/27 07:10:37;;;;;;;;;;;4.90;87.30;;;5.08;55.25;98673.28;4963664;28;113348;-76
2023/03/27 07:13:04;;;;;;;;;;;4.90;87.10;;;5.11;55.05;98672.72;4962305;28;113896;-76
2023/03/27 07:15:35;;;;;;;;;;;4.90;87.10;;;5.14;55.49;98674.09;4963904;28;123602;-76
2023/03/27 07:18:11;;;;;;;;;;;4.90;87.00;;;5.16;54.84;98691.88;4964634;28;123992;-77
2023/03/27 07:20:37;;;;;;;;;;;4.90;86.70;;;5.16;54.99;98691.03;4990623;28;114293;-76
2023/03/27 07:23:13;;;;;;;;;;;4.90;86.70;;;5.15;55.01;98692.13;4970591;28;113717;-76
2023/03/27 07:25:40;;;;;;;;;;;4.90;86.40;;;5.18;54.94;98699.78;4963432;28;124121;-76
2023/03/27 07:28:12;;;;;;;;;;;4.90;86.50;;;5.21;54.30;98700.06;4967790;28;123323;-76
2023/03/27 07:30:46;;;;;;;;;;;4.90;86.20;;;5.22;54.92;98715.41;4979782;28;114615;-79
2023/03/27 07:33:12;;;;;;;;;;;4.90;86.30;;;5.26;54.39;98710.16;4967561;28;115140;-75
2023/03/27 07:35:49;;;;;;;;;;;5.00;85.70;;;5.32;54.12;98731.81;4958762;28;124236;-76
2023/03/27 07:38:16;;;;;;;;;;;5.00;86.00;;;5.34;54.57;98720.53;4997883;28;123907;-77
2023/03/27 07:40:45;;;;;;;;;;;5.00;85.70;;;5.37;54.35;98719.97;4968217;28;112484;-76
2023/03/27 07:43:11;;;;;;;;;;;5.00;85.80;;;5.42;54.34;98721.88;4966140;28;113858;-77
2023/03/27 07:45:40;;;;;;;;;;;5.10;85.90;;;5.49;53.95;98736.94;4988715;28;124154;-78
2023/03/27 07:48:15;;;;;;;;;;;5.10;85.40;;;5.53;53.83;98732.53;4990209;28;124198;-76
2023/03/27 07:50:50;;;;;;;;;;;5.20;85.50;;;5.52;53.30;98744.59;4971190;28;114670;-76
2023/03/27 07:53:18;;;;;;;;;;;5.20;84.80;;;5.47;52.52;98758.31;4969500;28;113551;-77
2023/03/27 07:55:46;;;;;;;;;;;5.20;83.60;;;5.48;52.80;98767.34;4984829;28;124274;-77
2023/03/27 07:58:13;;;;;;;;;;;5.20;83.60;;;5.51;52.68;98769.53;5000642;28;123458;-77
2023/03/27 08:00:50;;;;;;;;;;;5.20;83.50;;;5.50;52.42;98763.22;4970935;28;114015;-77
2023/03/27 08:03:17;;;;;;;;;;;5.20;83.10;;;5.53;52.69;98772.81;4956452;28;112861;-78
2023/03/27 08:06:13;;;;;;;;;;;5.30;83.50;;;5.52;52.34;98776.66;4963642;28;124089;-78
2023/03/27 08:08:45;;;;;;;;;;;5.30;83.40;;;5.49;52.22;98793.66;4967530;28;123732;-78
2023/03/27 08:11:11;;;;;;;;;;;5.20;82.50;;;5.51;52.57;98795.03;4991068;28;113277;-78
2023/03/27 08:13:38;;;;;;;;;;;5.30;82.50;;;5.54;51.73;98804.59;4961182;28;113836;-79
2023/03/27 08:16:18;;;;;;;;;;;5.30;82.10;;;5.59;51.42;98809.22;4985129;28;123147;-78
2023/03/27 08:18:46;;;;;;;;;;;5.30;82.40;;;5.62;51.09;98805.94;4980083;28;123816;-77
2023/03/27 08:21:12;;;;;;;;;;;5.30;81.50;;;5.66;51.15;98824.28;4956771;28;116166;-77
2023/03/27 08:23:39;;;;;;;;;;;5.40;82.10;;;5.74;51.13;98817.41;4986362;28;114286;-78
2023/03/27 08:26:09;;;;;;;;;;;5.40;81.30;;;5.80;50.91;98831.91;4951889;28;123948;-77
2023/03/27 08:28:36;;;;;;;;;;;5.50;81.10;;;5.82;50.81;98818.75;4950200;28;124704;-78
2023/03/27 08:31:14;;;;;;;;;;;5.50;81.60;;;5.82;50.36;98818.75;4969815;28;114463;-78
2023/03/27 08:33:41;;;;;;;;;;;5.50;80.30;;;5.83;50.71;98826.69;4966857;28;113703;-77
2023/03/27 08:36:13;;;;;;;;;;;5.50;80.60;;;5.91;50.77;98831.59;4958766;28;124244;-78
2023/03/27 08:38:41;;;;;;;;;;;5.60;80.70;;;5.98;49.77;98826.66;4954261;28;124020;-77
2023/03/27 08:41:26;;;;;;;;;;;5.60;79.70;;;6.07;49.61;98818.66;4967931;28;113470;-77
2023/03/27 08:43:56;;;;;;;;;;;5.70;79.60;;;6.12;49.20;98826.84;4965564;28;113692;-77
2023/03/27 08:46:31;;;;;;;;;;;5.70;79.40;;;6.17;49.98;98834.22;4975137;28;124625;-77
2023/03/27 08:49:14;;;;;;;;;;;5.80;79.70;;;6.18;49.24;98833.97;4964995;28;123840;-78
2023/03/27 08:51:45;;;;;;;;;;;5.80;78.70;;;6.23;48.76;98846.00;4976895;28;115486;-77
2023/03/27 08:54:44;;;;;;;;;;;5.80;78.60;;;6.28;48.34;98838.56;4965681;28;113912;-77
2023/03/27 08:57:33;;;;;;;;;;;5.90;78.10;;;6.26;48.12;98843.53;4956022;28;124302;-77
2023/03/27 09:00:00;;;;;;;;;;;5.90;77.30;;;6.30;48.34;98841.03;4963362;28;123489;-77
2023/03/27 09:02:58;;;;;;;;;;;5.90;77.40;;;6.39;47.87;98855.78;4988777;28;107124;-79
2023/03/27 09:05:57;;;;;;;;;;;6.00;77.70;;;6.45;47.27;98860.16;4968107;28;113905;-77
2023/03/27 09:08:55;;;;;;;;;;;6.10;76.70;;;6.52;47.45;98860.63;4957696;28;123550;-78
2023/03/27 09:11:29;;;;;;;;;;;6.20;76.90;;;6.64;47.76;98874.84;4969591;28;123116;-77
2023/03/27 09:13:55;;;;;;;;;;;6.30;77.10;;;6.69;46.89;98884.13;4983789;28;114445;-77
2023/03/27 09:16:36;;;;;;;;;;;6.30;75.50;;;6.74;46.48;98895.09;4957534;28;113774;-77
2023/03/27 09:19:30;;;;;;;;;;;6.40;75.10;;;6.73;46.20;98887.97;4971710;28;125734;-77
2023/03/27 09:22:08;;;;;;;;;;;6.40;74.60;;;6.72;45.69;98889.09;4970747;28;123489;-77
2023/03/27 09:24:46;;;;;;;;;;;6.40;74.70;;;6.70;46.00;98883.03;4972004;28;113753;-78
2023/03/27 09:27:17;;;;;;;;;;;6.40;74.70;;;6.69;45.91;98892.38;4996236;28;113823;-78
2023/03/27 09:29:44;;;;;;;;;;;6.40;74.00;;;6.75;45.99;98894.00;4974046;28;124172;-80
2023/03/27 09:32:20;;;;;;;;;;;6.50;73.40;;;6.82;45.14;98889.00;4970401;28;123088;-77
2023/03/27 09:34:46;;;;;;;;;;;6.50;73.00;;;6.94;45.96;98885.91;4996899;28;114548;-77
2023/03/27 09:37:22;;;;;;;;;;;6.60;74.00;;;7.03;45.81;98906.13;4971813;28;113698;-77
2023/03/27 09:39:53;;;;;;;;;;;6.60;73.50;;;7.11;45.45;98900.03;4964324;28;124748;-78
2023/03/27 09:42:43;;;;;;;;;;;6.70;73.40;;;7.17;44.75;98895.31;4967409;28;123946;-76
2023/03/27 09:45:11;;;;;;;;;;;6.70;72.20;;;7.21;44.15;98908.19;4970988;28;114502;-78
2023/03/27 09:48:00;;;;;;;;;;;6.80;71.70;;;7.17;42.95;98914.53;4981845;28;113470;-78
2023/03/27 09:50:43;;;;;;;;;;;6.80;69.20;;;7.19;43.63;98912.34;4968867;28;123847;-78
2023/03/27 09:53:12;;;;;;;;;;;6.80;70.50;;;7.16;44.14;98921.16;4969033;28;124259;-81
2023/03/27 09:56:00;;;;;;;;;;;6.80;70.80;;;7.18;44.44;98921.69;4967547;28;114839;-78
2023/03/27 09:58:34;;;;;;;;;;;6.90;71.20;;;7.20;43.76;98924.97;4970741;28;114132;-76
2023/03/27 10:01:33;;;;;;;;;;;6.90;70.60;;;7.23;44.26;98929.91;4965931;28;124103;-77
2023/03/27 10:04:07;;;;;;;;;;;6.90;71.20;;;7.28;44.09;98927.09;4988160;28;123165;-79
2023/03/27 10:06:46;;;;;;;;;;;6.90;71.10;;;7.37;44.00;98927.31;4973093;28;115682;-77
2023/03/27 10:09:41;;;;;;;;;;;7.00;70.80;;;7.41;42.43;98926.44;4970540;28;114772;-77
2023/03/27 10:12:21;;;;;;;;;;;7.00;68.80;;;7.39;42.40;98928.66;4964504;28;125712;-78
2023/03/27 10:14:51;;;;;;;;;;;7.10;67.60;;;7.46;42.70;98929.13;4957198;28;123771;-77
2023/03/27 10:17:39;;;;;;;;;;;7.10;69.00;;;7.57;42.34;98937.28;4972306;28;114794;-78
2023/03/27 10:20:14;;;;;;;;;;;7.20;68.50;;;7.65;42.75;98936.66;4982173;28;113713;-77
2023/03/27 10:22:42;;;;;;;;;;;7.30;69.10;;;7.68;42.30;98941.56;4969070;28;123264;-77
2023/03/27 10:25:25;;;;;;;;;;;7.30;68.80;;;7.73;42.41;98938.78;4962847;28;123941;-78
2023/03/27 10:27:52;;;;;;;;;;;7.40;68.20;;;7.70;40.62;98942.13;4951818;28;113628;-77
2023/03/27 10:30:54;;;;;;;;;;;7.40;65.20;;;7.71;40.69;98946.50;4963811;28;113744;-76
2023/03/27 10:33:40;;;;;;;;;;;7.40;65.20;;;7.68;40.32;98941.56;4962515;28;124360;-76
2023/03/27 10:36:13;;;;;;;;;;;7.40;65.10;;;7.68;41.12;98941.56;4972146;28;124139;-77
2023/03/27 10:38:40;;;;;;;;;;;7.40;64.90;;;7.77;41.02;98950.84;4966490;28;114477;-77
2023/03/27 10:41:16;;;;;;;;;;;7.40;65.90;;;7.88;40.85;98940.56;4959780;28;113734;-77
2023/03/27 10:43:49;;;;;;;;;;;7.50;66.10;;;8.01;41.04;98950.06;4954003;28;124245;-77
2023/03/27 10:46:18;;;;;;;;;;;7.60;66.40;;;8.11;40.51;98970.03;4981290;28;123861;-77
2023/03/27 10:49:05;;;;;;;;;;;7.70;66.10;;;8.13;39.37;98948.53;4977367;28;113441;-79
2023/03/27 10:51:51;;;;;;;;;;;7.70;63.50;;;8.15;39.50;98956.50;4971018;28;113888;-76
2023/03/27 10:54:30;;;;;;;;;;;7.80;63.90;;;8.21;39.36;98954.50;4981895;28;124222;-76
2023/03/27 10:57:14;;;;;;;;;;;7.80;63.50;;;8.27;39.59;98956.91;4984370;28;123336;-78
2023/03/27 11:00:06;;;;;;;;;;;7.80;63.60;;;8.32;39.99;98962.34;4966292;28;115450;-81
2023/03/27 11:02:49;;;;;;;;;;;7.90;64.30;;;8.34;40.16;98965.63;4970206;28;114832;-76
2023/03/27 11:05:47;;;;;;;;;;;7.90;64.80;;;8.37;40.38;98961.47;4962585;28;124312;-76
2023/03/27 11:08:22;;;;;;;;;;;8.00;65.20;;;8.40;40.32;98969.97;4963705;28;124232;-76
2023/03/27 11:10:49;;;;;;;;;;;8.00;65.10;;;8.49;40.48;98972.09;4966646;28;114123;-76
2023/03/27 11:13:27;;;;;;;;;;;8.10;65.30;;;8.54;38.00;98970.13;4955584;28;113699;-77
2023/03/27 11:16:22;;;;;;;;;;;8.20;61.90;;;8.59;37.75;98971.97;4977460;28;123447;-77
2023/03/27 11:19:14;;;;;;;;;;;8.20;60.70;;;8.61;37.88;98978.81;4975879;28;123065;-76
2023/03/27 11:21:53;;;;;;;;;;;8.30;60.90;;;8.57;36.44;98983.28;4988468;28;113735;-76
2023/03/27 11:24:33;;;;;;;;;;;8.30;58.90;;;8.50;36.59;98977.31;4966717;28;111745;-78
2023/03/27 11:27:37;;;;;;;;;;;8.20;58.30;;;8.50;36.94;98985.56;4985128;28;124155;-77
2023/03/27 11:30:36;;;;;;;;;;;8.20;59.00;;;8.69;37.02;98993.06;4964511;28;123678;-80
2023/03/27 11:33:24;;;;;;;;;;;8.30;58.90;;;8.70;36.38;99001.00;4976089;28;112531;-79
2023/03/27 11:36:34;;;;;;;;;;;8.30;58.20;;;8.66;36.96;99002.72;4976668;28;112261;-78
2023/03/27 11:39:14;;;;;;;;;;;8.40;59.50;;;8.64;37.87;99010.47;4981581;28;123290;-77
2023/03/27 11:41:43;;;;;;;;;;;8.40;60.00;;;8.59;38.14;99010.53;4938862;28;123272;-78
2023/03/27 11:44:18;;;;;;;;;;;8.30;60.40;;;8.53;38.50;99039.25;4981618;28;114582;-77
2023/03/27 11:46:45;;;;;;;;;;;8.40;60.90;;;8.46;38.91;99019.47;4971156;28;113842;-77
2023/03/27 11:49:31;;;;;;;;;;;8.30;61.30;;;8.45;39.18;99015.09;4969347;28;125378;-79
2023/03/27 11:52:03;;;;;;;;;;;8.20;61.70;;;8.54;39.33;99018.84;4956217;28;123893;-77
2023/03/27 11:55:07;;;;;;;;;;;8.30;62.30;;;8.66;39.26;99004.66;4963406;28;115713;-79
2023/03/27 11:57:49;;;;;;;;;;;8.30;62.00;;;8.81;39.16;99010.81;4930139;28;114906;-79
2023/03/27 12:00:38;;;;;;;;;;;8.50;62.20;;;9.05;39.04;99007.16;4928370;28;125461;-79